| time (UTC) | temp F | wind direction | speed knots | gust knots | rain 1hr in | rain 24hr in | rain mn in | humidity % | barometer mb |
| 20260507193058 | 62 | 306 | 2.6 | 9.6 | 0.00 | 0.16 | 0.02 | 37 | 1004.0 |
| 20260507191558 | 62 | 290 | 1.7 | 7.8 | 0.00 | 0.16 | 0.02 | 36 | 1004.1 |
| 20260507190057 | 61 | 83 | 2.6 | 7.8 | 0.00 | 0.16 | 0.02 | 36 | 1004.1 |
| 20260507184600 | 61 | 259 | 3.5 | 7.8 | 0.00 | 0.17 | 0.02 | 35 | 1004.3 |
| 20260507183052 | 62 | 249 | 4.3 | 10.4 | 0.00 | 0.17 | 0.02 | 34 | 1004.4 |
| 20260507181600 | 62 | 243 | 3.5 | 8.7 | 0.00 | 0.17 | 0.02 | 34 | 1004.4 |
| 20260507180048 | 62 | 249 | 5.2 | 9.6 | 0.00 | 0.17 | 0.02 | 36 | 1004.8 |
| 20260507174554 | 62 | 261 | 2.6 | 7.0 | 0.00 | 0.17 | 0.02 | 36 | 1004.7 |
| 20260507173047 | 62 | 269 | 4.3 | 9.6 | 0.00 | 0.17 | 0.02 | 41 | 1004.5 |
| 20260507171546 | 62 | 313 | 1.7 | 6.1 | 0.00 | 0.17 | 0.02 | 41 | 1004.6 |
| 20260507170050 | 62 | 265 | 1.7 | 7.0 | 0.00 | 0.17 | 0.02 | 43 | 1005.0 |
| 20260507164542 | 61 | 216 | 0.9 | 5.2 | 0.00 | 0.17 | 0.02 | 47 | 1005.0 |
| 20260507163040 | 60 | 238 | 2.6 | 7.0 | 0.00 | 0.17 | 0.02 | 47 | 1005.1 |
| 20260507161539 | 60 | 302 | 2.6 | 6.1 | 0.00 | 0.17 | 0.02 | 51 | 1005.4 |
| 20260507160036 | 59 | 196 | 2.6 | 7.8 | 0.00 | 0.17 | 0.02 | 53 | 1005.4 |
| 20260507154534 | 59 | 213 | 2.6 | 7.0 | 0.00 | 0.17 | 0.02 | 58 | 1005.6 |
| 20260507153032 | 59 | 259 | 3.5 | 7.8 | 0.00 | 0.17 | 0.02 | 60 | 1005.6 |
| 20260507151531 | 59 | 320 | 2.6 | 7.0 | 0.00 | 0.17 | 0.02 | 62 | 1005.7 |
| 20260507150031 | 58 | 268 | 1.7 | 5.2 | 0.00 | 0.17 | 0.02 | 65 | 1005.9 |
| 20260507144526 | 58 | 320 | 1.7 | 7.0 | 0.00 | 0.17 | 0.02 | 65 | 1005.9 |
| 20260507143027 | 57 | 84 | 2.6 | 5.2 | 0.00 | 0.17 | 0.02 | 65 | 1006.1 |
| 20260507141523 | 57 | 197 | 1.7 | 4.3 | 0.00 | 0.17 | 0.02 | 67 | 1006.0 |
| 20260507140020 | 57 | 355 | 0.9 | 3.5 | 0.00 | 0.17 | 0.02 | 68 | 1006.1 |
| 20260507134518 | 56 | 250 | 1.7 | 5.2 | 0.00 | 0.17 | 0.02 | 68 | 1006.0 |
| 20260507133016 | 57 | 250 | 0.9 | 3.5 | 0.00 | 0.17 | 0.02 | 70 | 1006.0 |
| 20260507131519 | 56 | 9 | 0.9 | 3.5 | 0.00 | 0.17 | 0.02 | 70 | 1006.3 |
| 20260507130009 | 54 | 73 | 1.7 | 4.3 | 0.00 | 0.17 | 0.02 | 72 | 1006.4 |
| 20260507124509 | 54 | 84 | 0.9 | 4.3 | 0.00 | 0.17 | 0.02 | 77 | 1006.5 |
| 20260507123100 | 52 | 53 | 0.9 | 4.3 | 0.00 | 0.17 | 0.02 | 82 | 1006.4 |
| 20260507121607 | 51 | 89 | 0.9 | 3.5 | 0.00 | 0.17 | 0.02 | 83 | 1006.6 |
| 20260507120100 | 51 | 76 | 0.9 | 2.6 | 0.00 | 0.17 | 0.02 | 84 | 1006.5 |
| 20260507114611 | 50 | 105 | 1.7 | 2.6 | 0.00 | 0.17 | 0.02 | 85 | 1006.5 |
| 20260507113053 | 49 | 155 | 0.0 | 2.6 | 0.00 | 0.17 | 0.02 | 87 | 1006.3 |
| 20260507111551 | 49 | 153 | 0.0 | 1.7 | 0.00 | 0.17 | 0.02 | 87 | 1006.4 |
| 20260507110050 | 48 | 148 | 0.0 | 1.7 | 0.00 | 0.17 | 0.02 | 88 | 1006.0 |
| 20260507104546 | 48 | 144 | 0.0 | 0.9 | 0.00 | 0.17 | 0.02 | 88 | 1006.4 |
| 20260507103045 | 48 | 144 | 0.0 | 1.7 | 0.01 | 0.17 | 0.02 | 88 | 1005.8 |
| 20260507101543 | 48 | 155 | 0.0 | 1.7 | 0.01 | 0.17 | 0.02 | 88 | 1005.6 |
| 20260507100042 | 48 | 144 | 0.0 | 1.7 | 0.01 | 0.17 | 0.02 | 88 | 1005.8 |
| 20260507094541 | 48 | 152 | 0.0 | 2.6 | 0.01 | 0.17 | 0.02 | 88 | 1005.1 |
| 20260507093040 | 49 | 140 | 0.9 | 1.7 | 0.00 | 0.16 | 0.01 | 89 | 1005.7 |
| 20260507091535 | 49 | 153 | 0.9 | 1.7 | 0.00 | 0.16 | 0.01 | 89 | 1005.6 |
| 20260507090037 | 49 | 146 | 0.9 | 1.7 | 0.00 | 0.16 | 0.01 | 89 | 1006.1 |
| 20260507084531 | 50 | 167 | 0.9 | 2.6 | 0.00 | 0.16 | 0.01 | 89 | 1005.8 |
| 20260507083029 | 50 | 137 | 0.9 | 3.5 | 0.00 | 0.16 | 0.01 | 89 | 1005.7 |
| 20260507081540 | 50 | 139 | 0.9 | 2.6 | 0.00 | 0.16 | 0.01 | 90 | 1005.3 |
| 20260507080026 | 51 | 140 | 0.9 | 2.6 | 0.00 | 0.16 | 0.01 | 89 | 1005.4 |
| 20260507074543 | 51 | 130 | 1.7 | 3.5 | 0.01 | 0.16 | 0.01 | 89 | 1005.6 |
| 20260507073020 | 52 | 130 | 2.6 | 4.3 | 0.01 | 0.16 | 0.01 | 88 | 1005.6 |
| 20260507071518 | 52 | 155 | 0.9 | 4.3 | 0.01 | 0.16 | 0.01 | 89 | 1004.8 |
| 20260507070020 | 53 | 138 | 0.9 | 2.6 | 0.00 | 0.15 | 0.00 | 89 | 1004.8 |
| 20260507064514 | 53 | 134 | 0.0 | 1.7 | 0.00 | 0.15 | 0.00 | 89 | 1004.5 |
| 20260507063021 | 53 | 140 | 0.9 | 2.6 | 0.00 | 0.15 | 0.00 | 89 | 1004.7 |
| 20260507061511 | 54 | 134 | 0.9 | 2.6 | 0.00 | 0.15 | 0.00 | 91 | 1004.7 |
| 20260507060012 | 54 | 140 | 0.9 | 2.6 | 0.00 | 0.15 | 0.00 | 91 | 1004.7 |
| 20260507054507 | 54 | 137 | 0.0 | 2.6 | 0.00 | 0.15 | 0.00 | 90 | 1004.7 |
| 20260507053007 | 55 | 138 | 0.9 | 2.6 | 0.00 | 0.15 | 0.00 | 91 | 1005.1 |
| 20260507051505 | 55 | 131 | 0.9 | 1.7 | 0.00 | 0.15 | 0.00 | 90 | 1005.1 |
| 20260507050006 | 55 | 142 | 0.9 | 1.7 | 0.00 | 0.15 | 0.00 | 90 | 1005.1 |
| 20260507044500 | 56 | 131 | 0.0 | 2.6 | 0.00 | 0.15 | 0.00 | 90 | 1005.3 |
| 20260507043100 | 56 | 158 | 0.9 | 2.6 | 0.00 | 0.15 | 0.00 | 91 | 1004.9 |
| 20260507041601 | 57 | 119 | 1.7 | 3.5 | 0.00 | 0.15 | 0.00 | 91 | 1004.9 |
| 20260507040051 | 58 | 116 | 1.7 | 2.6 | 0.00 | 0.15 | 0.00 | 92 | 1005.0 |
| 20260507034557 | 58 | 114 | 1.7 | 3.5 | 0.01 | 0.15 | 0.15 | 92 | 1004.8 |
| 20260507033054 | 58 | 111 | 1.7 | 2.6 | 0.01 | 0.15 | 0.15 | 92 | 1004.4 |
| 20260507031602 | 59 | 104 | 1.7 | 5.2 | 0.01 | 0.15 | 0.15 | 93 | 1004.4 |
| 20260507030053 | 59 | 105 | 0.9 | 5.2 | 0.01 | 0.15 | 0.15 | 93 | 1004.0 |
| 20260507024547 | 59 | 102 | 0.9 | 2.6 | 0.00 | 0.14 | 0.14 | 93 | 1003.8 |
| 20260507023049 | 59 | 107 | 0.9 | 3.5 | 0.00 | 0.14 | 0.14 | 93 | 1003.9 |
| 20260507021545 | 59 | 96 | 1.7 | 3.5 | 0.00 | 0.14 | 0.14 | 93 | 1003.9 |
| 20260507020048 | 59 | 108 | 0.9 | 5.2 | 0.00 | 0.14 | 0.14 | 93 | 1003.8 |
| 20260507014551 | 59 | 113 | 0.9 | 3.5 | 0.00 | 0.14 | 0.14 | 93 | 1003.8 |
| 20260507013045 | 59 | 126 | 0.9 | 3.5 | 0.00 | 0.14 | 0.14 | 93 | 1003.9 |
| 20260507011544 | 59 | 139 | 1.7 | 3.5 | 0.00 | 0.14 | 0.14 | 93 | 1003.9 |
| 20260507010044 | 59 | 102 | 1.7 | 5.2 | 0.00 | 0.14 | 0.14 | 93 | 1004.0 |
| 20260507004541 | 59 | 92 | 0.9 | 3.5 | 0.00 | 0.14 | 0.14 | 93 | 1004.0 |
| 20260507003043 | 59 | 109 | 0.9 | 3.5 | 0.00 | 0.14 | 0.14 | 93 | 1004.0 |
| 20260507001543 | 59 | 86 | 0.9 | 3.5 | 0.01 | 0.14 | 0.14 | 93 | 1003.9 |
| 20260507000041 | 59 | 109 | 0.9 | 3.5 | 0.03 | 0.14 | 0.14 | 93 | 1003.8 |
| 20260506234538 | 59 | 97 | 0.9 | 3.5 | 0.05 | 0.14 | 0.14 | 93 | 1003.6 |
| 20260506233042 | 59 | 84 | 0.9 | 5.2 | 0.05 | 0.14 | 0.14 | 93 | 1003.6 |
| 20260506231536 | 60 | 107 | 1.7 | 3.5 | 0.04 | 0.13 | 0.13 | 92 | 1003.4 |
| 20260506230034 | 60 | 99 | 1.7 | 7.8 | 0.02 | 0.10 | 0.10 | 92 | 1003.6 |
| 20260506224533 | 60 | 84 | 0.9 | 3.5 | 0.01 | 0.09 | 0.09 | 92 | 1003.8 |
| 20260506223035 | 60 | 86 | 0.9 | 3.5 | 0.01 | 0.09 | 0.09 | 92 | 1003.8 |
| 20260506221531 | 60 | 132 | 1.7 | 6.1 | 0.01 | 0.09 | 0.09 | 91 | 1003.8 |
| 20260506220030 | 60 | 104 | 0.9 | 6.1 | 0.01 | 0.08 | 0.08 | 91 | 1004.0 |
| 20260506214528 | 60 | 30 | 1.7 | 7.0 | 0.01 | 0.08 | 0.08 | 91 | 1004.0 |
| 20260506213027 | 60 | 105 | 0.9 | 3.5 | 0.02 | 0.08 | 0.08 | 91 | 1004.3 |
| 20260506211525 | 60 | 107 | 0.9 | 3.5 | 0.03 | 0.08 | 0.08 | 91 | 1004.5 |
| 20260506210027 | 60 | 103 | 1.7 | 6.1 | 0.03 | 0.07 | 0.07 | 90 | 1004.5 |
| 20260506204625 | 60 | 78 | 2.6 | 7.8 | 0.03 | 0.07 | 0.07 | 90 | 1004.5 |
| 20260506203022 | 61 | 96 | 0.9 | 5.2 | 0.03 | 0.06 | 0.06 | 90 | 1004.8 |
| 20260506201522 | 61 | 80 | 1.7 | 7.8 | 0.03 | 0.05 | 0.05 | 89 | 1004.7 |
| 20260506200020 | 62 | 92 | 0.9 | 10.4 | 0.03 | 0.04 | 0.04 | 89 | 1004.7 |
| 20260506194522 | 62 | 89 | 1.7 | 5.2 | 0.04 | 0.04 | 0.04 | 88 | 1004.7 |